Morning Charlotte — 3EMA2 — position and weather

sailwx.info

Track history (hours):
 
Tides and Currents Weather Stations Pressure Air Temp Water Temp Dewpoint Dewpoint Depression Visibility Wind Speed Wind Dir Waves Ship Positions

Morning Charlotte

Last reported at 2016-Jul-01 00:34 UTC. Time now 2016-Jul-01 00:49 UTC.
Position N 50°37' W 000°53'.

Length 200 m; draft 9 m.

Type: Cargo ship. MMSI: 357275000.

Date/timePositionNaut miles runAvg speedWind from/ knotsBaromVisibWave heightAir tempDewpointWater temp
2016-Jul-01 00:34N 50°37' W 000°53'9 8.6
2016-Jun-30 23:34N 50°33' W 000°40'3 2.7
2016-Jun-30 22:33N 50°33' W 000°36'1413.9
2016-Jun-30 21:33N 50°30' W 000°14'1515.6
2016-Jun-30 20:33N 50°33' E 000°10'1615.5
2016-Jun-30 19:33N 50°37' E 000°33'1915.2
2016-Jun-30 18:16N 50°47' E 000°59'1115.3
2016-Jun-30 17:34N 50°53' E 001°14'1414.5
2016-Jun-30 16:33N 51°04' E 001°30'1817.7
2016-Jun-30 15:33N 51°17' E 001°49'1717.4
2016-Jun-30 14:33N 51°32' E 002°02'1716.7
2016-Jun-30 13:33N 51°44' E 002°20'1616.1
2016-Jun-30 12:33N 51°56' E 002°38'7815.3
2016-Jun-30 07:27N 52°57' E 003°58'1616.6
2016-Jun-30 06:31N 53°07' E 004°18'2914.7
2016-Jun-30 04:33N 53°30' E 004°46'1414.4
2016-Jun-30 03:33N 53°36' E 005°08'1413.7
2016-Jun-30 02:34N 53°40' E 005°30'1413.5
2016-Jun-30 01:33N 53°45' E 005°52'1414.3
2016-Jun-30 00:33N 53°49' E 006°15'1515.3
2016-Jun-29 23:33N 53°52' E 006°40'1616.0
2016-Jun-29 22:33N 53°56' E 007°07'1616.3
2016-Jun-29 21:33N 53°59' E 007°34'1312.6
2016-Jun-29 20:33N 53°52' E 007°52'1414.2
2016-Jun-29 19:33N 53°45' E 008°12'1414.0
2016-Jun-29 18:33N 53°36' E 008°30'3 2.5
2016-Jun-29 17:34N 53°34' E 008°33'0 0.3
2016-Jun-29 16:33N 53°35' E 008°33'0 0.0
2016-Jun-29 15:33N 53°35' E 008°33'0 0.0
2016-Jun-29 14:33N 53°35' E 008°33'0 0.0
2016-Jun-29 13:33N 53°35' E 008°33'0 0.0
2016-Jun-29 12:33N 53°35' E 008°33'0 0.0
2016-Jun-29 11:33N 53°35' E 008°33'0 0.0
2016-Jun-29 10:33N 53°35' E 008°33'0 0.0
2016-Jun-29 09:33N 53°35' E 008°33'0 0.0
2016-Jun-29 08:33N 53°35' E 008°33'0 0.0
2016-Jun-29 07:33N 53°35' E 008°33'0 0.0
2016-Jun-29 06:24N 53°35' E 008°33'0 0.0
2016-Jun-29 05:33N 53°35' E 008°33'0 0.0
2016-Jun-29 04:30N 53°35' E 008°33'0 0.0
2016-Jun-29 03:33N 53°35' E 008°33'0 0.0
2016-Jun-29 02:33N 53°35' E 008°33'0 0.0
2016-Jun-29 01:30N 53°35' E 008°33'0 0.0
2016-Jun-29 00:30N 53°35' E 008°33'0 0.0
2016-Jun-28 23:33N 53°35' E 008°33'0 0.0
2016-Jun-28 22:33N 53°35' E 008°33'0 0.0
2016-Jun-28 21:33N 53°35' E 008°33'0 0.0
2016-Jun-28 20:33N 53°35' E 008°33'0 0.0
2016-Jun-28 19:33N 53°35' E 008°33'0 0.0
2016-Jun-28 18:33N 53°35' E 008°33'0 0.0
2016-Jun-28 17:33N 53°35' E 008°33'0 0.0
2016-Jun-28 16:33N 53°35' E 008°33'0 0.0
2016-Jun-28 15:33N 53°35' E 008°33'0 0.0
2016-Jun-28 14:30N 53°35' E 008°33'0 0.0
2016-Jun-28 13:33N 53°35' E 008°33'0 0.0
2016-Jun-28 12:33N 53°35' E 008°33'0 0.0
2016-Jun-28 11:33N 53°35' E 008°33'0 0.0
2016-Jun-28 10:33N 53°35' E 008°33'0 0.0
2016-Jun-28 09:30N 53°35' E 008°33'0 0.0
2016-Jun-28 08:33N 53°35' E 008°33'0 0.0
2016-Jun-28 07:33N 53°35' E 008°33'0 0.0
2016-Jun-28 06:33N 53°35' E 008°33'0 0.0
2016-Jun-28 04:33N 53°35' E 008°33'0 0.0
2016-Jun-28 03:33N 53°35' E 008°33'0 0.0
2016-Jun-28 02:33N 53°35' E 008°33'0 0.0
2016-Jun-28 01:33N 53°35' E 008°33'0 0.0
2016-Jun-28 00:33N 53°35' E 008°33'0 0.0
2016-Jun-27 23:30N 53°35' E 008°33'0 0.0
2016-Jun-27 22:30N 53°35' E 008°33'0 0.0
2016-Jun-27 21:33N 53°35' E 008°33'0 0.0
2016-Jun-27 20:33N 53°35' E 008°33'0 0.0
2016-Jun-27 19:33N 53°35' E 008°33'1 0.8
2016-Jun-27 18:33N 53°34' E 008°33'10 9.8
2016-Jun-27 17:33N 53°41' E 008°21'1413.7
2016-Jun-27 16:34N 53°50' E 008°04'1212.2
2016-Jun-27 15:33N 53°53' E 007°44'1515.6
2016-Jun-27 14:34N 54°06' E 007°29'1211.9
2016-Jun-27 13:33N 54°18' E 007°30'2 2.2
2016-Jun-27 12:33N 54°16' E 007°27'3 2.6
2016-Jun-27 11:33N 54°18' E 007°31'2 2.5
2016-Jun-27 10:33N 54°17' E 007°27'2 1.6
2016-Jun-27 09:34N 54°16' E 007°25'7 7.4
2016-Jun-27 08:34N 54°09' E 007°32'1313.4
2016-Jun-27 07:33N 53°56' E 007°34'1616.1
2016-Jun-27 06:33N 53°52' E 007°07'1313.4
2016-Jun-27 05:33N 53°48' E 006°45'1413.6
2016-Jun-27 04:33N 53°45' E 006°23'1515.5
2016-Jun-27 03:34N 53°40' E 005°58'1717.2
2016-Jun-27 02:33N 53°35' E 005°30'1817.8
2016-Jun-27 01:33N 53°29' E 005°03'1816.8
2016-Jun-27 00:31N 53°18' E 004°39'1818.4
2016-Jun-26 23:33N 53°03' E 004°24'1717.5
2016-Jun-26 22:33N 52°47' E 004°11'1817.7
2016-Jun-26 21:33N 52°35' E 003°50'1817.9
2016-Jun-26 20:33N 52°22' E 003°30'1918.5
2016-Jun-26 19:33N 52°09' E 003°09'1918.9
2016-Jun-26 18:33N 51°55' E 002°48'1919.3
2016-Jun-26 17:33N 51°41' E 002°27'1919.3
2016-Jun-26 16:33N 51°25' E 002°09'1717.3
2016-Jun-26 15:34N 51°11' E 001°54'2019.5
2016-Jun-26 14:34N 50°57' E 001°32'1818.1
2016-Jun-26 13:33N 50°40' E 001°19'3718.3
2016-Jun-26 11:33N 50°23' E 000°28'1918.7
2016-Jun-26 10:33N 50°19' E 000°00'1818.1
2016-Jun-26 09:33N 50°14' W 000°27'1717.3
2016-Jun-26 08:33N 50°10' W 000°53'6114.9
2016-Jun-26 04:28N 49°53' W 002°24'1415.6
2016-Jun-26 03:34N 49°50' W 002°46'1616.4
2016-Jun-26 02:33N 49°47' W 003°11'1717.0
2016-Jun-26 01:34N 49°46' W 003°37'1716.9
2016-Jun-26 00:33N 49°42' W 004°03'1717.2
2016-Jun-25 23:33N 49°39' W 004°29'  
Track history (hours):
 
Tides and Currents Weather Stations Pressure Air Temp Water Temp Dewpoint Dewpoint Depression Visibility Wind Speed Wind Dir Waves Ship Positions

Morning Charlotte

Last reported at 2016-Jul-01 00:34 UTC. Time now 2016-Jul-01 00:49 UTC.
Position N 50°37' W 000°53'.

Length 200 m; draft 9 m.

Type: Cargo ship. MMSI: 357275000.

Date/timePositionNaut miles runAvg speedWind from/ knotsBaromVisibWave heightAir tempDewpointWater temp
2016-Jul-01 00:34N 50°37' W 000°53'9 8.6
2016-Jun-30 23:34N 50°33' W 000°40'3 2.7
2016-Jun-30 22:33N 50°33' W 000°36'1413.9
2016-Jun-30 21:33N 50°30' W 000°14'1515.6
2016-Jun-30 20:33N 50°33' E 000°10'1615.5
2016-Jun-30 19:33N 50°37' E 000°33'1915.2
2016-Jun-30 18:16N 50°47' E 000°59'1115.3
2016-Jun-30 17:34N 50°53' E 001°14'1414.5
2016-Jun-30 16:33N 51°04' E 001°30'1817.7
2016-Jun-30 15:33N 51°17' E 001°49'1717.4
2016-Jun-30 14:33N 51°32' E 002°02'1716.7
2016-Jun-30 13:33N 51°44' E 002°20'1616.1
2016-Jun-30 12:33N 51°56' E 002°38'7815.3
2016-Jun-30 07:27N 52°57' E 003°58'1616.6
2016-Jun-30 06:31N 53°07' E 004°18'2914.7
2016-Jun-30 04:33N 53°30' E 004°46'1414.4
2016-Jun-30 03:33N 53°36' E 005°08'1413.7
2016-Jun-30 02:34N 53°40' E 005°30'1413.5
2016-Jun-30 01:33N 53°45' E 005°52'1414.3
2016-Jun-30 00:33N 53°49' E 006°15'1515.3
2016-Jun-29 23:33N 53°52' E 006°40'1616.0
2016-Jun-29 22:33N 53°56' E 007°07'1616.3
2016-Jun-29 21:33N 53°59' E 007°34'1312.6
2016-Jun-29 20:33N 53°52' E 007°52'1414.2
2016-Jun-29 19:33N 53°45' E 008°12'1414.0
2016-Jun-29 18:33N 53°36' E 008°30'3 2.5
2016-Jun-29 17:34N 53°34' E 008°33'0 0.3
2016-Jun-29 16:33N 53°35' E 008°33'0 0.0
2016-Jun-29 15:33N 53°35' E 008°33'0 0.0
2016-Jun-29 14:33N 53°35' E 008°33'0 0.0
2016-Jun-29 13:33N 53°35' E 008°33'0 0.0
2016-Jun-29 12:33N 53°35' E 008°33'0 0.0
2016-Jun-29 11:33N 53°35' E 008°33'0 0.0
2016-Jun-29 10:33N 53°35' E 008°33'0 0.0
2016-Jun-29 09:33N 53°35' E 008°33'0 0.0
2016-Jun-29 08:33N 53°35' E 008°33'0 0.0
2016-Jun-29 07:33N 53°35' E 008°33'0 0.0
2016-Jun-29 06:24N 53°35' E 008°33'0 0.0
2016-Jun-29 05:33N 53°35' E 008°33'0 0.0
2016-Jun-29 04:30N 53°35' E 008°33'0 0.0
2016-Jun-29 03:33N 53°35' E 008°33'0 0.0
2016-Jun-29 02:33N 53°35' E 008°33'0 0.0
2016-Jun-29 01:30N 53°35' E 008°33'0 0.0
2016-Jun-29 00:30N 53°35' E 008°33'0 0.0
2016-Jun-28 23:33N 53°35' E 008°33'0 0.0
2016-Jun-28 22:33N 53°35' E 008°33'0 0.0
2016-Jun-28 21:33N 53°35' E 008°33'0 0.0
2016-Jun-28 20:33N 53°35' E 008°33'0 0.0
2016-Jun-28 19:33N 53°35' E 008°33'0 0.0
2016-Jun-28 18:33N 53°35' E 008°33'0 0.0
2016-Jun-28 17:33N 53°35' E 008°33'0 0.0
2016-Jun-28 16:33N 53°35' E 008°33'0 0.0
2016-Jun-28 15:33N 53°35' E 008°33'0 0.0
2016-Jun-28 14:30N 53°35' E 008°33'0 0.0
2016-Jun-28 13:33N 53°35' E 008°33'0 0.0
2016-Jun-28 12:33N 53°35' E 008°33'0 0.0
2016-Jun-28 11:33N 53°35' E 008°33'0 0.0
2016-Jun-28 10:33N 53°35' E 008°33'0 0.0
2016-Jun-28 09:30N 53°35' E 008°33'0 0.0
2016-Jun-28 08:33N 53°35' E 008°33'0 0.0
2016-Jun-28 07:33N 53°35' E 008°33'0 0.0
2016-Jun-28 06:33N 53°35' E 008°33'0 0.0
2016-Jun-28 04:33N 53°35' E 008°33'0 0.0
2016-Jun-28 03:33N 53°35' E 008°33'0 0.0
2016-Jun-28 02:33N 53°35' E 008°33'0 0.0
2016-Jun-28 01:33N 53°35' E 008°33'0 0.0
2016-Jun-28 00:33N 53°35' E 008°33'0 0.0
2016-Jun-27 23:30N 53°35' E 008°33'0 0.0
2016-Jun-27 22:30N 53°35' E 008°33'0 0.0
2016-Jun-27 21:33N 53°35' E 008°33'0 0.0
2016-Jun-27 20:33N 53°35' E 008°33'0 0.0
2016-Jun-27 19:33N 53°35' E 008°33'1 0.8
2016-Jun-27 18:33N 53°34' E 008°33'10 9.8
2016-Jun-27 17:33N 53°41' E 008°21'1413.7
2016-Jun-27 16:34N 53°50' E 008°04'1212.2
2016-Jun-27 15:33N 53°53' E 007°44'1515.6
2016-Jun-27 14:34N 54°06' E 007°29'1211.9
2016-Jun-27 13:33N 54°18' E 007°30'2 2.2
2016-Jun-27 12:33N 54°16' E 007°27'3 2.6
2016-Jun-27 11:33N 54°18' E 007°31'2 2.5
2016-Jun-27 10:33N 54°17' E 007°27'2 1.6
2016-Jun-27 09:34N 54°16' E 007°25'7 7.4
2016-Jun-27 08:34N 54°09' E 007°32'1313.4
2016-Jun-27 07:33N 53°56' E 007°34'1616.1
2016-Jun-27 06:33N 53°52' E 007°07'1313.4
2016-Jun-27 05:33N 53°48' E 006°45'1413.6
2016-Jun-27 04:33N 53°45' E 006°23'1515.5
2016-Jun-27 03:34N 53°40' E 005°58'1717.2
2016-Jun-27 02:33N 53°35' E 005°30'1817.8
2016-Jun-27 01:33N 53°29' E 005°03'1816.8
2016-Jun-27 00:31N 53°18' E 004°39'1818.4
2016-Jun-26 23:33N 53°03' E 004°24'1717.5
2016-Jun-26 22:33N 52°47' E 004°11'1817.7
2016-Jun-26 21:33N 52°35' E 003°50'1817.9
2016-Jun-26 20:33N 52°22' E 003°30'1918.5
2016-Jun-26 19:33N 52°09' E 003°09'1918.9
2016-Jun-26 18:33N 51°55' E 002°48'1919.3
2016-Jun-26 17:33N 51°41' E 002°27'1919.3
2016-Jun-26 16:33N 51°25' E 002°09'1717.3
2016-Jun-26 15:34N 51°11' E 001°54'2019.5
2016-Jun-26 14:34N 50°57' E 001°32'1818.1
2016-Jun-26 13:33N 50°40' E 001°19'3718.3
2016-Jun-26 11:33N 50°23' E 000°28'1918.7
2016-Jun-26 10:33N 50°19' E 000°00'1818.1
2016-Jun-26 09:33N 50°14' W 000°27'1717.3
2016-Jun-26 08:33N 50°10' W 000°53'6114.9
2016-Jun-26 04:28N 49°53' W 002°24'1415.6
2016-Jun-26 03:34N 49°50' W 002°46'1616.4
2016-Jun-26 02:33N 49°47' W 003°11'1717.0
2016-Jun-26 01:34N 49°46' W 003°37'1716.9
2016-Jun-26 00:33N 49°42' W 004°03'1717.2
2016-Jun-25 23:33N 49°39' W 004°29'  

Dump ship's entire track history